sensor_id;sensor_type;location;lat;lon;timestamp;P1;durP1;ratioP1;P2;durP2;ratioP2
48875;SDS011;34689;51.644;5.618;2022-08-19T00:00:30;8.07;;;6.13;;
48875;SDS011;34689;51.644;5.618;2022-08-19T00:02:56;7.07;;;5.57;;
48875;SDS011;34689;51.644;5.618;2022-08-19T00:05:21;6.25;;;4.90;;
48875;SDS011;34689;51.644;5.618;2022-08-19T00:07:48;8.40;;;6.78;;
48875;SDS011;34689;51.644;5.618;2022-08-19T00:10:14;7.05;;;5.68;;
48875;SDS011;34689;51.644;5.618;2022-08-19T00:12:40;7.82;;;5.70;;
48875;SDS011;34689;51.644;5.618;2022-08-19T00:15:11;8.40;;;6.15;;
48875;SDS011;34689;51.644;5.618;2022-08-19T00:17:39;9.05;;;6.85;;
48875;SDS011;34689;51.644;5.618;2022-08-19T00:20:06;7.82;;;6.05;;
48875;SDS011;34689;51.644;5.618;2022-08-19T00:22:33;9.13;;;7.00;;
48875;SDS011;34689;51.644;5.618;2022-08-19T00:24:59;8.05;;;6.07;;
48875;SDS011;34689;51.644;5.618;2022-08-19T00:27:28;7.88;;;6.10;;
48875;SDS011;34689;51.644;5.618;2022-08-19T00:29:53;7.35;;;5.70;;
48875;SDS011;34689;51.644;5.618;2022-08-19T00:32:19;8.05;;;6.82;;
48875;SDS011;34689;51.644;5.618;2022-08-19T00:34:45;7.72;;;6.00;;
48875;SDS011;34689;51.644;5.618;2022-08-19T00:37:11;9.15;;;6.40;;
48875;SDS011;34689;51.644;5.618;2022-08-19T00:39:37;8.05;;;6.15;;
48875;SDS011;34689;51.644;5.618;2022-08-19T00:42:03;7.13;;;6.00;;
48875;SDS011;34689;51.644;5.618;2022-08-19T00:44:31;8.43;;;6.40;;
48875;SDS011;34689;51.644;5.618;2022-08-19T00:46:57;8.40;;;6.97;;
48875;SDS011;34689;51.644;5.618;2022-08-19T00:49:35;9.07;;;6.60;;
48875;SDS011;34689;51.644;5.618;2022-08-19T00:52:04;8.55;;;6.32;;
48875;SDS011;34689;51.644;5.618;2022-08-19T00:54:38;10.02;;;6.88;;
48875;SDS011;34689;51.644;5.618;2022-08-19T00:57:06;8.30;;;6.47;;
48875;SDS011;34689;51.644;5.618;2022-08-19T00:59:37;9.88;;;6.22;;
48875;SDS011;34689;51.644;5.618;2022-08-19T01:02:05;8.75;;;5.88;;
48875;SDS011;34689;51.644;5.618;2022-08-19T01:04:31;8.10;;;6.18;;
48875;SDS011;34689;51.644;5.618;2022-08-19T01:06:56;8.73;;;6.85;;
48875;SDS011;34689;51.644;5.618;2022-08-19T01:09:23;7.15;;;5.78;;
48875;SDS011;34689;51.644;5.618;2022-08-19T01:11:49;7.20;;;6.00;;
48875;SDS011;34689;51.644;5.618;2022-08-19T01:14:15;7.28;;;5.65;;
48875;SDS011;34689;51.644;5.618;2022-08-19T01:16:44;8.95;;;6.53;;
48875;SDS011;34689;51.644;5.618;2022-08-19T01:19:18;8.02;;;6.07;;
48875;SDS011;34689;51.644;5.618;2022-08-19T01:22:01;8.27;;;5.03;;
48875;SDS011;34689;51.644;5.618;2022-08-19T01:24:30;8.25;;;5.75;;
48875;SDS011;34689;51.644;5.618;2022-08-19T01:26:56;5.72;;;4.80;;
48875;SDS011;34689;51.644;5.618;2022-08-19T01:29:22;9.65;;;6.70;;
48875;SDS011;34689;51.644;5.618;2022-08-19T01:31:48;6.65;;;5.35;;
48875;SDS011;34689;51.644;5.618;2022-08-19T01:34:17;8.48;;;6.07;;
48875;SDS011;34689;51.644;5.618;2022-08-19T01:36:44;7.60;;;5.93;;
48875;SDS011;34689;51.644;5.618;2022-08-19T01:39:13;7.25;;;5.32;;
48875;SDS011;34689;51.644;5.618;2022-08-19T01:41:45;9.45;;;5.72;;
48875;SDS011;34689;51.644;5.618;2022-08-19T01:44:11;7.30;;;5.75;;
48875;SDS011;34689;51.644;5.618;2022-08-19T01:46:37;7.78;;;6.10;;
48875;SDS011;34689;51.644;5.618;2022-08-19T01:49:04;7.50;;;5.63;;
48875;SDS011;34689;51.644;5.618;2022-08-19T01:51:30;7.50;;;5.68;;
48875;SDS011;34689;51.644;5.618;2022-08-19T01:53:56;9.18;;;5.70;;
48875;SDS011;34689;51.644;5.618;2022-08-19T01:56:23;8.07;;;6.05;;
48875;SDS011;34689;51.644;5.618;2022-08-19T01:58:51;7.68;;;5.15;;
48875;SDS011;34689;51.644;5.618;2022-08-19T02:01:20;7.38;;;5.28;;
48875;SDS011;34689;51.644;5.618;2022-08-19T02:03:46;8.10;;;6.15;;
48875;SDS011;34689;51.644;5.618;2022-08-19T02:06:12;8.63;;;6.80;;
48875;SDS011;34689;51.644;5.618;2022-08-19T02:08:39;10.65;;;6.90;;
48875;SDS011;34689;51.644;5.618;2022-08-19T02:11:05;8.38;;;5.82;;
48875;SDS011;34689;51.644;5.618;2022-08-19T02:13:32;9.82;;;6.78;;
48875;SDS011;34689;51.644;5.618;2022-08-19T02:15:59;8.82;;;5.68;;
48875;SDS011;34689;51.644;5.618;2022-08-19T02:18:24;11.80;;;5.60;;
48875;SDS011;34689;51.644;5.618;2022-08-19T02:20:53;6.28;;;4.95;;
48875;SDS011;34689;51.644;5.618;2022-08-19T02:23:18;7.53;;;5.38;;
48875;SDS011;34689;51.644;5.618;2022-08-19T02:25:47;7.68;;;5.20;;
48875;SDS011;34689;51.644;5.618;2022-08-19T02:28:14;8.27;;;5.65;;
48875;SDS011;34689;51.644;5.618;2022-08-19T02:30:40;8.10;;;5.78;;
48875;SDS011;34689;51.644;5.618;2022-08-19T02:33:07;8.05;;;5.80;;
48875;SDS011;34689;51.644;5.618;2022-08-19T02:35:32;6.60;;;4.57;;
48875;SDS011;34689;51.644;5.618;2022-08-19T02:37:58;9.13;;;6.05;;
48875;SDS011;34689;51.644;5.618;2022-08-19T02:40:47;8.93;;;5.85;;
48875;SDS011;34689;51.644;5.618;2022-08-19T02:43:16;8.20;;;5.93;;
48875;SDS011;34689;51.644;5.618;2022-08-19T02:45:42;5.50;;;4.45;;
48875;SDS011;34689;51.644;5.618;2022-08-19T02:48:08;9.32;;;6.40;;
48875;SDS011;34689;51.644;5.618;2022-08-19T02:50:37;7.47;;;5.60;;
48875;SDS011;34689;51.644;5.618;2022-08-19T02:53:04;9.43;;;5.35;;
48875;SDS011;34689;51.644;5.618;2022-08-19T02:55:30;7.93;;;5.25;;
48875;SDS011;34689;51.644;5.618;2022-08-19T02:57:58;7.45;;;5.75;;
48875;SDS011;34689;51.644;5.618;2022-08-19T03:00:24;9.38;;;5.95;;
48875;SDS011;34689;51.644;5.618;2022-08-19T03:02:51;8.43;;;5.72;;
48875;SDS011;34689;51.644;5.618;2022-08-19T03:05:19;6.97;;;4.80;;
48875;SDS011;34689;51.644;5.618;2022-08-19T03:07:44;7.60;;;5.63;;
48875;SDS011;34689;51.644;5.618;2022-08-19T03:10:12;8.45;;;5.93;;
48875;SDS011;34689;51.644;5.618;2022-08-19T03:12:38;8.32;;;6.07;;
48875;SDS011;34689;51.644;5.618;2022-08-19T03:15:06;8.57;;;5.90;;
48875;SDS011;34689;51.644;5.618;2022-08-19T03:17:33;7.80;;;5.70;;
48875;SDS011;34689;51.644;5.618;2022-08-19T03:19:59;6.65;;;4.85;;
48875;SDS011;34689;51.644;5.618;2022-08-19T03:22:25;6.78;;;4.80;;
48875;SDS011;34689;51.644;5.618;2022-08-19T03:24:51;6.80;;;5.05;;
48875;SDS011;34689;51.644;5.618;2022-08-19T03:27:16;7.47;;;5.18;;
48875;SDS011;34689;51.644;5.618;2022-08-19T03:29:42;6.72;;;4.97;;
48875;SDS011;34689;51.644;5.618;2022-08-19T03:32:08;6.88;;;4.70;;
48875;SDS011;34689;51.644;5.618;2022-08-19T03:34:35;5.25;;;4.13;;
48875;SDS011;34689;51.644;5.618;2022-08-19T03:37:09;7.45;;;4.93;;
48875;SDS011;34689;51.644;5.618;2022-08-19T03:39:39;8.00;;;4.68;;
48875;SDS011;34689;51.644;5.618;2022-08-19T03:42:05;5.75;;;4.32;;
48875;SDS011;34689;51.644;5.618;2022-08-19T03:44:31;6.72;;;4.63;;
48875;SDS011;34689;51.644;5.618;2022-08-19T03:46:58;7.07;;;4.25;;
48875;SDS011;34689;51.644;5.618;2022-08-19T03:49:25;7.10;;;4.90;;
48875;SDS011;34689;51.644;5.618;2022-08-19T03:51:53;6.57;;;4.47;;
48875;SDS011;34689;51.644;5.618;2022-08-19T03:54:21;5.35;;;3.88;;
48875;SDS011;34689;51.644;5.618;2022-08-19T03:56:48;6.15;;;4.38;;
48875;SDS011;34689;51.644;5.618;2022-08-19T03:59:18;7.50;;;5.57;;
48875;SDS011;34689;51.644;5.618;2022-08-19T04:01:51;6.95;;;4.93;;
48875;SDS011;34689;51.644;5.618;2022-08-19T04:04:21;7.15;;;4.95;;
48875;SDS011;34689;51.644;5.618;2022-08-19T04:06:46;4.82;;;3.83;;
48875;SDS011;34689;51.644;5.618;2022-08-19T04:09:12;3.90;;;3.05;;
48875;SDS011;34689;51.644;5.618;2022-08-19T04:11:40;4.22;;;3.45;;
48875;SDS011;34689;51.644;5.618;2022-08-19T04:14:16;4.05;;;3.13;;
48875;SDS011;34689;51.644;5.618;2022-08-19T04:16:44;5.05;;;2.72;;
48875;SDS011;34689;51.644;5.618;2022-08-19T04:19:11;4.15;;;3.03;;
48875;SDS011;34689;51.644;5.618;2022-08-19T04:21:38;4.07;;;3.08;;
48875;SDS011;34689;51.644;5.618;2022-08-19T04:24:04;4.82;;;3.38;;
48875;SDS011;34689;51.644;5.618;2022-08-19T04:26:31;4.13;;;3.20;;
48875;SDS011;34689;51.644;5.618;2022-08-19T04:29:01;3.63;;;2.78;;
48875;SDS011;34689;51.644;5.618;2022-08-19T04:31:31;5.00;;;3.38;;
48875;SDS011;34689;51.644;5.618;2022-08-19T04:34:01;4.93;;;3.75;;
48875;SDS011;34689;51.644;5.618;2022-08-19T04:36:33;5.18;;;3.60;;
48875;SDS011;34689;51.644;5.618;2022-08-19T04:39:03;4.85;;;3.38;;
48875;SDS011;34689;51.644;5.618;2022-08-19T04:41:34;6.00;;;4.07;;
48875;SDS011;34689;51.644;5.618;2022-08-19T04:44:18;4.82;;;3.55;;
48875;SDS011;34689;51.644;5.618;2022-08-19T04:46:45;4.72;;;3.47;;
48875;SDS011;34689;51.644;5.618;2022-08-19T04:49:13;4.40;;;3.50;;
48875;SDS011;34689;51.644;5.618;2022-08-19T04:51:42;6.10;;;4.15;;
48875;SDS011;34689;51.644;5.618;2022-08-19T04:54:09;6.63;;;4.38;;
48875;SDS011;34689;51.644;5.618;2022-08-19T04:56:35;6.38;;;4.32;;
48875;SDS011;34689;51.644;5.618;2022-08-19T04:59:02;6.65;;;4.43;;
48875;SDS011;34689;51.644;5.618;2022-08-19T05:01:29;5.82;;;4.18;;
48875;SDS011;34689;51.644;5.618;2022-08-19T05:03:58;5.00;;;3.88;;
48875;SDS011;34689;51.644;5.618;2022-08-19T05:06:25;5.20;;;3.95;;
48875;SDS011;34689;51.644;5.618;2022-08-19T05:08:52;6.75;;;4.53;;
48875;SDS011;34689;51.644;5.618;2022-08-19T05:11:27;7.32;;;4.30;;
48875;SDS011;34689;51.644;5.618;2022-08-19T05:13:55;9.15;;;4.72;;
48875;SDS011;34689;51.644;5.618;2022-08-19T05:16:22;6.25;;;4.43;;
48875;SDS011;34689;51.644;5.618;2022-08-19T05:18:50;6.38;;;4.43;;
48875;SDS011;34689;51.644;5.618;2022-08-19T05:21:35;6.22;;;4.95;;
48875;SDS011;34689;51.644;5.618;2022-08-19T05:24:40;5.80;;;4.55;;
48875;SDS011;34689;51.644;5.618;2022-08-19T05:27:06;5.97;;;4.70;;
48875;SDS011;34689;51.644;5.618;2022-08-19T05:29:32;7.05;;;4.90;;
48875;SDS011;34689;51.644;5.618;2022-08-19T05:31:59;7.95;;;4.82;;
48875;SDS011;34689;51.644;5.618;2022-08-19T05:34:31;7.35;;;4.18;;
48875;SDS011;34689;51.644;5.618;2022-08-19T05:36:58;5.65;;;4.22;;
48875;SDS011;34689;51.644;5.618;2022-08-19T05:39:30;8.93;;;5.65;;
48875;SDS011;34689;51.644;5.618;2022-08-19T05:41:59;8.02;;;5.47;;
48875;SDS011;34689;51.644;5.618;2022-08-19T05:44:32;8.90;;;5.95;;
48875;SDS011;34689;51.644;5.618;2022-08-19T05:47:00;10.63;;;6.35;;
48875;SDS011;34689;51.644;5.618;2022-08-19T05:49:28;8.90;;;6.63;;
48875;SDS011;34689;51.644;5.618;2022-08-19T05:51:54;13.20;;;8.10;;
48875;SDS011;34689;51.644;5.618;2022-08-19T05:54:21;13.35;;;8.93;;
48875;SDS011;34689;51.644;5.618;2022-08-19T05:56:48;13.35;;;8.05;;
48875;SDS011;34689;51.644;5.618;2022-08-19T05:59:15;12.00;;;7.85;;
48875;SDS011;34689;51.644;5.618;2022-08-19T06:01:43;15.23;;;9.38;;
48875;SDS011;34689;51.644;5.618;2022-08-19T06:04:11;13.75;;;8.95;;
48875;SDS011;34689;51.644;5.618;2022-08-19T06:06:38;14.57;;;8.77;;
48875;SDS011;34689;51.644;5.618;2022-08-19T06:09:04;19.77;;;10.65;;
48875;SDS011;34689;51.644;5.618;2022-08-19T06:11:33;15.55;;;9.35;;
48875;SDS011;34689;51.644;5.618;2022-08-19T06:14:08;16.65;;;9.95;;
48875;SDS011;34689;51.644;5.618;2022-08-19T06:16:36;23.35;;;11.80;;
48875;SDS011;34689;51.644;5.618;2022-08-19T06:19:05;20.58;;;11.20;;
48875;SDS011;34689;51.644;5.618;2022-08-19T06:21:36;19.33;;;11.40;;
48875;SDS011;34689;51.644;5.618;2022-08-19T06:24:04;16.17;;;10.02;;
48875;SDS011;34689;51.644;5.618;2022-08-19T06:26:31;22.33;;;11.85;;
48875;SDS011;34689;51.644;5.618;2022-08-19T06:28:59;19.63;;;12.02;;
48875;SDS011;34689;51.644;5.618;2022-08-19T06:31:27;23.50;;;12.85;;
48875;SDS011;34689;51.644;5.618;2022-08-19T06:33:53;18.13;;;10.70;;
48875;SDS011;34689;51.644;5.618;2022-08-19T06:38:53;15.32;;;9.57;;
48875;SDS011;34689;51.644;5.618;2022-08-19T06:41:19;18.13;;;10.48;;
48875;SDS011;34689;51.644;5.618;2022-08-19T06:43:45;17.90;;;10.88;;
48875;SDS011;34689;51.644;5.618;2022-08-19T06:46:14;17.15;;;9.50;;
48875;SDS011;34689;51.644;5.618;2022-08-19T06:48:41;15.82;;;9.38;;
48875;SDS011;34689;51.644;5.618;2022-08-19T06:51:07;17.77;;;9.77;;
48875;SDS011;34689;51.644;5.618;2022-08-19T06:53:33;10.32;;;6.20;;
48875;SDS011;34689;51.644;5.618;2022-08-19T06:55:59;13.38;;;7.63;;
48875;SDS011;34689;51.644;5.618;2022-08-19T06:58:28;13.52;;;7.82;;
48875;SDS011;34689;51.644;5.618;2022-08-19T07:00:58;14.93;;;8.77;;
48875;SDS011;34689;51.644;5.618;2022-08-19T07:03:27;14.60;;;9.13;;
48875;SDS011;34689;51.644;5.618;2022-08-19T07:05:56;11.20;;;6.18;;
48875;SDS011;34689;51.644;5.618;2022-08-19T07:08:22;14.07;;;9.57;;
48875;SDS011;34689;51.644;5.618;2022-08-19T07:10:49;13.77;;;7.78;;
48875;SDS011;34689;51.644;5.618;2022-08-19T07:13:14;12.82;;;8.18;;
48875;SDS011;34689;51.644;5.618;2022-08-19T07:15:40;12.65;;;7.50;;
48875;SDS011;34689;51.644;5.618;2022-08-19T07:18:06;11.55;;;7.40;;
48875;SDS011;34689;51.644;5.618;2022-08-19T07:20:31;12.13;;;7.43;;
48875;SDS011;34689;51.644;5.618;2022-08-19T07:23:01;11.45;;;7.13;;
48875;SDS011;34689;51.644;5.618;2022-08-19T07:25:26;9.55;;;6.95;;
48875;SDS011;34689;51.644;5.618;2022-08-19T07:27:52;10.30;;;7.18;;
48875;SDS011;34689;51.644;5.618;2022-08-19T07:30:17;10.68;;;7.13;;
48875;SDS011;34689;51.644;5.618;2022-08-19T07:32:43;12.00;;;6.88;;
48875;SDS011;34689;51.644;5.618;2022-08-19T07:35:09;10.52;;;5.90;;
48875;SDS011;34689;51.644;5.618;2022-08-19T07:37:35;8.55;;;6.50;;
48875;SDS011;34689;51.644;5.618;2022-08-19T07:40:05;10.50;;;5.97;;
48875;SDS011;34689;51.644;5.618;2022-08-19T07:42:32;11.80;;;7.05;;
48875;SDS011;34689;51.644;5.618;2022-08-19T07:44:58;10.20;;;6.53;;
48875;SDS011;34689;51.644;5.618;2022-08-19T07:47:24;10.70;;;7.07;;
48875;SDS011;34689;51.644;5.618;2022-08-19T07:49:49;13.05;;;7.95;;
48875;SDS011;34689;51.644;5.618;2022-08-19T07:52:15;19.52;;;12.10;;
48875;SDS011;34689;51.644;5.618;2022-08-19T07:54:42;15.20;;;9.05;;
48875;SDS011;34689;51.644;5.618;2022-08-19T07:57:08;19.42;;;11.15;;
48875;SDS011;34689;51.644;5.618;2022-08-19T07:59:34;13.45;;;9.02;;
48875;SDS011;34689;51.644;5.618;2022-08-19T08:02:03;15.18;;;9.18;;
48875;SDS011;34689;51.644;5.618;2022-08-19T08:04:30;8.60;;;6.40;;
48875;SDS011;34689;51.644;5.618;2022-08-19T08:07:15;16.25;;;9.68;;
48875;SDS011;34689;51.644;5.618;2022-08-19T08:09:59;24.48;;;14.27;;
48875;SDS011;34689;51.644;5.618;2022-08-19T08:12:30;15.77;;;10.02;;
48875;SDS011;34689;51.644;5.618;2022-08-19T08:15:01;19.88;;;11.30;;
48875;SDS011;34689;51.644;5.618;2022-08-19T08:17:29;20.10;;;11.20;;
48875;SDS011;34689;51.644;5.618;2022-08-19T08:19:56;25.67;;;14.95;;
48875;SDS011;34689;51.644;5.618;2022-08-19T08:22:23;20.98;;;12.93;;
48875;SDS011;34689;51.644;5.618;2022-08-19T08:25:09;18.65;;;11.43;;
48875;SDS011;34689;51.644;5.618;2022-08-19T08:27:38;21.45;;;11.95;;
48875;SDS011;34689;51.644;5.618;2022-08-19T08:30:06;20.98;;;12.27;;
48875;SDS011;34689;51.644;5.618;2022-08-19T08:32:36;17.35;;;10.60;;
48875;SDS011;34689;51.644;5.618;2022-08-19T08:35:04;17.80;;;10.70;;
48875;SDS011;34689;51.644;5.618;2022-08-19T08:37:31;19.50;;;10.52;;
48875;SDS011;34689;51.644;5.618;2022-08-19T08:39:57;18.52;;;10.65;;
48875;SDS011;34689;51.644;5.618;2022-08-19T08:42:30;17.77;;;9.77;;
48875;SDS011;34689;51.644;5.618;2022-08-19T08:45:03;19.08;;;10.05;;
48875;SDS011;34689;51.644;5.618;2022-08-19T08:47:37;21.25;;;11.65;;
48875;SDS011;34689;51.644;5.618;2022-08-19T08:50:13;18.05;;;11.18;;
48875;SDS011;34689;51.644;5.618;2022-08-19T08:52:45;16.23;;;9.63;;
48875;SDS011;34689;51.644;5.618;2022-08-19T08:55:20;17.38;;;11.13;;
48875;SDS011;34689;51.644;5.618;2022-08-19T09:00:22;13.67;;;9.97;;
48875;SDS011;34689;51.644;5.618;2022-08-19T09:02:59;17.58;;;9.45;;
48875;SDS011;34689;51.644;5.618;2022-08-19T09:06:13;15.85;;;9.00;;
48875;SDS011;34689;51.644;5.618;2022-08-19T09:10:57;12.68;;;7.00;;
48875;SDS011;34689;51.644;5.618;2022-08-19T09:16:22;20.88;;;11.07;;
48875;SDS011;34689;51.644;5.618;2022-08-19T09:18:52;18.77;;;12.10;;
48875;SDS011;34689;51.644;5.618;2022-08-19T09:21:22;15.82;;;10.20;;
48875;SDS011;34689;51.644;5.618;2022-08-19T09:23:49;15.57;;;8.13;;
48875;SDS011;34689;51.644;5.618;2022-08-19T09:26:15;13.27;;;9.10;;
48875;SDS011;34689;51.644;5.618;2022-08-19T09:28:45;14.25;;;9.20;;
48875;SDS011;34689;51.644;5.618;2022-08-19T09:31:12;12.68;;;7.97;;
48875;SDS011;34689;51.644;5.618;2022-08-19T09:33:40;16.92;;;8.90;;
48875;SDS011;34689;51.644;5.618;2022-08-19T09:36:09;20.70;;;12.07;;
48875;SDS011;34689;51.644;5.618;2022-08-19T09:38:37;11.20;;;8.27;;
48875;SDS011;34689;51.644;5.618;2022-08-19T09:41:06;15.10;;;8.43;;
48875;SDS011;34689;51.644;5.618;2022-08-19T09:43:36;13.52;;;9.43;;
48875;SDS011;34689;51.644;5.618;2022-08-19T09:46:03;12.35;;;9.10;;
48875;SDS011;34689;51.644;5.618;2022-08-19T09:48:31;15.70;;;9.10;;
48875;SDS011;34689;51.644;5.618;2022-08-19T09:53:35;15.25;;;8.80;;
48875;SDS011;34689;51.644;5.618;2022-08-19T09:56:01;16.30;;;10.93;;
48875;SDS011;34689;51.644;5.618;2022-08-19T09:58:28;15.52;;;9.07;;
48875;SDS011;34689;51.644;5.618;2022-08-19T10:00:55;15.68;;;8.80;;
48875;SDS011;34689;51.644;5.618;2022-08-19T10:03:23;14.02;;;8.15;;
48875;SDS011;34689;51.644;5.618;2022-08-19T10:05:52;20.63;;;12.07;;
48875;SDS011;34689;51.644;5.618;2022-08-19T10:08:20;19.08;;;11.15;;
48875;SDS011;34689;51.644;5.618;2022-08-19T10:11:04;21.85;;;11.85;;
48875;SDS011;34689;51.644;5.618;2022-08-19T10:13:31;19.25;;;12.13;;
48875;SDS011;34689;51.644;5.618;2022-08-19T10:16:03;16.55;;;11.27;;
48875;SDS011;34689;51.644;5.618;2022-08-19T10:18:31;15.88;;;10.55;;
48875;SDS011;34689;51.644;5.618;2022-08-19T10:21:06;15.82;;;10.20;;
48875;SDS011;34689;51.644;5.618;2022-08-19T10:23:41;24.48;;;12.38;;
48875;SDS011;34689;51.644;5.618;2022-08-19T10:26:17;21.17;;;13.63;;
48875;SDS011;34689;51.644;5.618;2022-08-19T10:28:48;16.88;;;12.07;;
48875;SDS011;34689;51.644;5.618;2022-08-19T10:31:18;15.65;;;9.60;;
48875;SDS011;34689;51.644;5.618;2022-08-19T10:33:48;16.60;;;8.52;;
48875;SDS011;34689;51.644;5.618;2022-08-19T10:36:19;15.13;;;8.85;;
48875;SDS011;34689;51.644;5.618;2022-08-19T10:38:48;14.90;;;9.37;;
48875;SDS011;34689;51.644;5.618;2022-08-19T10:43:43;14.20;;;8.90;;
48875;SDS011;34689;51.644;5.618;2022-08-19T10:46:11;15.05;;;9.32;;
48875;SDS011;34689;51.644;5.618;2022-08-19T10:48:41;18.80;;;11.13;;
48875;SDS011;34689;51.644;5.618;2022-08-19T10:51:07;16.38;;;9.95;;
48875;SDS011;34689;51.644;5.618;2022-08-19T10:53:53;16.83;;;10.80;;
48875;SDS011;34689;51.644;5.618;2022-08-19T10:56:19;15.95;;;10.00;;
48875;SDS011;34689;51.644;5.618;2022-08-19T10:59:04;19.35;;;10.95;;
48875;SDS011;34689;51.644;5.618;2022-08-19T11:01:32;18.58;;;10.55;;
48875;SDS011;34689;51.644;5.618;2022-08-19T11:04:03;14.88;;;9.05;;
48875;SDS011;34689;51.644;5.618;2022-08-19T11:06:31;15.50;;;8.93;;
48875;SDS011;34689;51.644;5.618;2022-08-19T11:08:57;13.80;;;8.55;;
48875;SDS011;34689;51.644;5.618;2022-08-19T11:11:23;20.27;;;11.77;;
48875;SDS011;34689;51.644;5.618;2022-08-19T11:13:49;12.90;;;8.35;;
48875;SDS011;34689;51.644;5.618;2022-08-19T11:16:19;12.70;;;8.10;;
48875;SDS011;34689;51.644;5.618;2022-08-19T11:18:54;15.75;;;8.60;;
48875;SDS011;34689;51.644;5.618;2022-08-19T11:21:27;16.13;;;10.18;;
48875;SDS011;34689;51.644;5.618;2022-08-19T11:23:58;17.65;;;10.65;;
48875;SDS011;34689;51.644;5.618;2022-08-19T11:26:25;18.55;;;9.57;;
48875;SDS011;34689;51.644;5.618;2022-08-19T11:28:52;15.68;;;10.40;;
48875;SDS011;34689;51.644;5.618;2022-08-19T11:31:22;17.20;;;9.98;;
48875;SDS011;34689;51.644;5.618;2022-08-19T11:33:51;14.55;;;9.85;;
48875;SDS011;34689;51.644;5.618;2022-08-19T11:36:19;15.60;;;9.13;;
48875;SDS011;34689;51.644;5.618;2022-08-19T11:38:46;18.10;;;10.38;;
48875;SDS011;34689;51.644;5.618;2022-08-19T11:41:13;19.60;;;11.25;;
48875;SDS011;34689;51.644;5.618;2022-08-19T11:43:41;19.23;;;12.95;;
48875;SDS011;34689;51.644;5.618;2022-08-19T11:46:08;17.33;;;10.07;;
48875;SDS011;34689;51.644;5.618;2022-08-19T11:48:35;16.67;;;9.27;;
48875;SDS011;34689;51.644;5.618;2022-08-19T11:51:05;15.45;;;8.95;;
48875;SDS011;34689;51.644;5.618;2022-08-19T11:53:33;12.48;;;6.70;;
48875;SDS011;34689;51.644;5.618;2022-08-19T11:56:00;13.70;;;8.77;;
48875;SDS011;34689;51.644;5.618;2022-08-19T11:58:26;11.48;;;7.68;;
48875;SDS011;34689;51.644;5.618;2022-08-19T12:00:51;15.65;;;8.98;;
48875;SDS011;34689;51.644;5.618;2022-08-19T12:03:17;14.75;;;10.60;;
48875;SDS011;34689;51.644;5.618;2022-08-19T12:05:44;13.23;;;9.60;;
48875;SDS011;34689;51.644;5.618;2022-08-19T12:08:10;18.10;;;10.02;;
48875;SDS011;34689;51.644;5.618;2022-08-19T12:10:38;13.52;;;8.20;;
48875;SDS011;34689;51.644;5.618;2022-08-19T12:13:05;14.55;;;8.95;;
48875;SDS011;34689;51.644;5.618;2022-08-19T12:15:35;13.63;;;9.25;;
48875;SDS011;34689;51.644;5.618;2022-08-19T12:18:02;15.65;;;9.82;;
48875;SDS011;34689;51.644;5.618;2022-08-19T12:20:29;12.45;;;8.32;;
48875;SDS011;34689;51.644;5.618;2022-08-19T12:22:54;10.38;;;7.13;;
48875;SDS011;34689;51.644;5.618;2022-08-19T12:25:20;10.77;;;6.75;;
48875;SDS011;34689;51.644;5.618;2022-08-19T12:27:46;12.05;;;7.47;;
48875;SDS011;34689;51.644;5.618;2022-08-19T12:30:12;14.25;;;8.50;;
48875;SDS011;34689;51.644;5.618;2022-08-19T12:32:39;14.27;;;9.73;;
48875;SDS011;34689;51.644;5.618;2022-08-19T12:35:06;13.23;;;8.82;;
48875;SDS011;34689;51.644;5.618;2022-08-19T12:37:34;11.73;;;7.80;;
48875;SDS011;34689;51.644;5.618;2022-08-19T12:40:00;11.15;;;7.82;;
48875;SDS011;34689;51.644;5.618;2022-08-19T12:42:27;14.45;;;8.93;;
48875;SDS011;34689;51.644;5.618;2022-08-19T12:44:53;11.07;;;7.97;;
48875;SDS011;34689;51.644;5.618;2022-08-19T12:47:19;12.18;;;8.10;;
48875;SDS011;34689;51.644;5.618;2022-08-19T12:49:45;16.27;;;8.10;;
48875;SDS011;34689;51.644;5.618;2022-08-19T12:52:12;18.23;;;9.75;;
48875;SDS011;34689;51.644;5.618;2022-08-19T12:54:40;13.50;;;7.68;;
48875;SDS011;34689;51.644;5.618;2022-08-19T12:57:08;11.93;;;7.35;;
48875;SDS011;34689;51.644;5.618;2022-08-19T12:59:35;13.38;;;8.80;;
48875;SDS011;34689;51.644;5.618;2022-08-19T13:02:06;12.20;;;8.15;;
48875;SDS011;34689;51.644;5.618;2022-08-19T13:04:32;9.85;;;6.18;;
48875;SDS011;34689;51.644;5.618;2022-08-19T13:07:05;12.38;;;6.93;;
48875;SDS011;34689;51.644;5.618;2022-08-19T13:09:33;10.50;;;6.47;;
48875;SDS011;34689;51.644;5.618;2022-08-19T13:11:58;9.18;;;5.95;;
48875;SDS011;34689;51.644;5.618;2022-08-19T13:14:27;11.27;;;6.22;;
48875;SDS011;34689;51.644;5.618;2022-08-19T13:16:54;9.10;;;5.55;;
48875;SDS011;34689;51.644;5.618;2022-08-19T13:19:19;11.90;;;7.50;;
48875;SDS011;34689;51.644;5.618;2022-08-19T13:21:49;10.90;;;7.78;;
48875;SDS011;34689;51.644;5.618;2022-08-19T13:24:15;9.63;;;6.07;;
48875;SDS011;34689;51.644;5.618;2022-08-19T13:26:41;7.40;;;5.45;;
48875;SDS011;34689;51.644;5.618;2022-08-19T13:29:07;10.00;;;6.18;;
48875;SDS011;34689;51.644;5.618;2022-08-19T13:31:51;9.77;;;6.30;;
48875;SDS011;34689;51.644;5.618;2022-08-19T13:34:35;12.20;;;6.75;;
48875;SDS011;34689;51.644;5.618;2022-08-19T13:37:02;12.02;;;7.90;;
48875;SDS011;34689;51.644;5.618;2022-08-19T13:39:29;10.73;;;7.00;;
48875;SDS011;34689;51.644;5.618;2022-08-19T13:41:57;14.07;;;8.55;;
48875;SDS011;34689;51.644;5.618;2022-08-19T13:44:24;11.98;;;7.45;;
48875;SDS011;34689;51.644;5.618;2022-08-19T13:46:51;12.45;;;7.93;;
48875;SDS011;34689;51.644;5.618;2022-08-19T13:49:18;13.93;;;8.40;;
48875;SDS011;34689;51.644;5.618;2022-08-19T13:51:45;11.18;;;7.97;;
48875;SDS011;34689;51.644;5.618;2022-08-19T13:54:11;10.75;;;6.70;;
48875;SDS011;34689;51.644;5.618;2022-08-19T13:56:44;12.75;;;8.48;;
48875;SDS011;34689;51.644;5.618;2022-08-19T13:59:10;11.55;;;7.70;;
48875;SDS011;34689;51.644;5.618;2022-08-19T14:01:36;14.52;;;9.57;;
48875;SDS011;34689;51.644;5.618;2022-08-19T14:04:03;14.98;;;9.70;;
48875;SDS011;34689;51.644;5.618;2022-08-19T14:06:29;16.85;;;10.10;;
48875;SDS011;34689;51.644;5.618;2022-08-19T14:08:54;15.65;;;10.30;;
48875;SDS011;34689;51.644;5.618;2022-08-19T14:11:20;17.42;;;9.63;;
48875;SDS011;34689;51.644;5.618;2022-08-19T14:13:47;12.38;;;7.88;;
48875;SDS011;34689;51.644;5.618;2022-08-19T14:16:14;13.98;;;8.45;;
48875;SDS011;34689;51.644;5.618;2022-08-19T14:18:42;13.77;;;7.93;;
48875;SDS011;34689;51.644;5.618;2022-08-19T14:21:21;13.25;;;8.02;;
48875;SDS011;34689;51.644;5.618;2022-08-19T14:23:48;13.70;;;8.93;;
48875;SDS011;34689;51.644;5.618;2022-08-19T14:26:15;14.98;;;7.55;;
48875;SDS011;34689;51.644;5.618;2022-08-19T14:28:43;9.57;;;6.20;;
48875;SDS011;34689;51.644;5.618;2022-08-19T14:31:09;15.25;;;7.40;;
48875;SDS011;34689;51.644;5.618;2022-08-19T14:33:36;15.07;;;7.40;;
48875;SDS011;34689;51.644;5.618;2022-08-19T14:36:02;10.07;;;7.00;;
48875;SDS011;34689;51.644;5.618;2022-08-19T14:38:28;10.15;;;6.82;;
48875;SDS011;34689;51.644;5.618;2022-08-19T14:41:05;10.27;;;5.72;;
48875;SDS011;34689;51.644;5.618;2022-08-19T14:43:41;8.60;;;5.65;;
48875;SDS011;34689;51.644;5.618;2022-08-19T14:46:11;10.07;;;6.40;;
48875;SDS011;34689;51.644;5.618;2022-08-19T14:48:38;9.52;;;5.80;;
48875;SDS011;34689;51.644;5.618;2022-08-19T14:51:05;6.60;;;4.32;;
48875;SDS011;34689;51.644;5.618;2022-08-19T14:53:33;7.32;;;4.63;;
48875;SDS011;34689;51.644;5.618;2022-08-19T14:55:59;6.88;;;4.57;;
48875;SDS011;34689;51.644;5.618;2022-08-19T14:58:25;8.98;;;4.60;;
48875;SDS011;34689;51.644;5.618;2022-08-19T15:00:53;5.68;;;4.18;;